createdAt,value
2019-02-22T00:02:25.857Z,8.24
2019-02-22T00:04:59.161Z,8.19
2019-02-22T00:07:32.470Z,8.17
2019-02-22T00:10:06.689Z,8.14
2019-02-22T00:12:39.997Z,8.12
2019-02-22T00:15:13.270Z,8.08
2019-02-22T00:17:46.582Z,8.06
2019-02-22T00:20:19.865Z,8.00
2019-02-22T00:22:53.182Z,8.01
2019-02-22T00:25:26.473Z,8.01
2019-02-22T00:28:00.282Z,8.11
2019-02-22T00:30:33.620Z,8.16
2019-02-22T00:33:06.955Z,8.17
2019-02-22T00:35:40.285Z,8.05
2019-02-22T00:38:13.526Z,7.99
2019-02-22T00:40:46.803Z,7.92
2019-02-22T00:43:20.117Z,7.88
2019-02-22T00:45:53.383Z,7.92
2019-02-22T00:48:26.681Z,7.93
2019-02-22T00:51:00.007Z,7.96
2019-02-22T00:53:33.279Z,7.93
2019-02-22T00:56:06.565Z,7.93
2019-02-22T00:58:39.855Z,7.95
2019-02-22T01:01:13.132Z,7.95
2019-02-22T01:03:46.437Z,8.00
2019-02-22T01:06:19.727Z,8.00
2019-02-22T01:08:52.997Z,8.01
2019-02-22T01:11:26.284Z,8.06
2019-02-22T01:13:59.595Z,8.07
2019-02-22T01:16:32.862Z,8.03
2019-02-22T01:19:06.150Z,7.98
2019-02-22T01:21:39.425Z,7.96
2019-02-22T01:24:12.722Z,7.97
2019-02-22T01:26:46.002Z,7.94
2019-02-22T01:29:19.316Z,8.02
2019-02-22T01:31:52.582Z,8.01
2019-02-22T01:34:25.907Z,8.04
2019-02-22T01:36:59.170Z,8.08
2019-02-22T01:39:32.466Z,8.11
2019-02-22T01:42:05.749Z,8.12
2019-02-22T01:44:39.029Z,8.13
2019-02-22T01:47:12.316Z,8.11
2019-02-22T01:49:45.612Z,8.01
2019-02-22T01:52:18.909Z,7.95
2019-02-22T01:54:52.223Z,7.99
2019-02-22T01:57:25.503Z,7.97
2019-02-22T01:59:58.804Z,7.93
2019-02-22T02:02:32.072Z,7.92
2019-02-22T02:05:05.437Z,7.92
2019-02-22T02:07:38.729Z,7.94
2019-02-22T02:10:12.080Z,7.99
2019-02-22T02:12:45.363Z,8.03
2019-02-22T02:15:18.732Z,8.06
2019-02-22T02:17:52.015Z,8.02
2019-02-22T02:20:25.333Z,7.93
2019-02-22T02:22:58.606Z,7.98
2019-02-22T02:25:31.898Z,8.05
2019-02-22T02:28:07.863Z,8.08
2019-02-22T02:30:41.230Z,8.10
2019-02-22T02:33:14.437Z,8.10
2019-02-22T02:35:47.721Z,8.09
2019-02-22T02:38:20.981Z,8.06
2019-02-22T02:41:06.834Z,8.04
2019-02-22T02:43:29.298Z,8.07
2019-02-22T02:46:02.606Z,8.08
2019-02-22T02:48:35.883Z,8.06
2019-02-22T02:51:09.169Z,8.02
2019-02-22T02:53:42.454Z,7.97
2019-02-22T02:56:17.444Z,7.92
2019-02-22T02:58:50.736Z,7.97
2019-02-22T03:01:24.027Z,7.96
2019-02-22T03:03:57.321Z,7.96
2019-02-22T03:06:34.700Z,7.93
2019-02-22T03:09:09.619Z,7.93
2019-02-22T03:11:42.921Z,7.92
2019-02-22T03:14:16.202Z,7.92
2019-02-22T03:16:49.515Z,7.93
2019-02-22T03:19:22.801Z,7.92
2019-02-22T03:21:56.109Z,7.93
2019-02-22T03:24:29.378Z,7.92
2019-02-22T03:27:02.749Z,7.91
2019-02-22T03:29:36.025Z,7.91
2019-02-22T03:32:09.318Z,7.91
2019-02-22T03:34:42.602Z,7.90
2019-02-22T03:37:15.908Z,8.00
2019-02-22T03:39:49.199Z,8.01
2019-02-22T03:42:22.512Z,8.03
2019-02-22T03:44:55.855Z,8.03
2019-02-22T03:47:29.142Z,8.04
2019-02-22T03:50:02.435Z,8.04
2019-02-22T03:52:47.620Z,8.08
2019-02-22T03:55:20.889Z,8.08
2019-02-22T03:57:54.186Z,8.14
2019-02-22T04:00:27.494Z,8.23
2019-02-22T04:03:00.849Z,8.29
2019-02-22T04:05:34.134Z,8.33
2019-02-22T04:08:08.506Z,8.38
2019-02-22T04:10:41.795Z,8.37
2019-02-22T04:13:15.095Z,8.36
2019-02-22T04:15:48.387Z,8.35
2019-02-22T04:18:21.687Z,8.36
2019-02-22T04:20:54.945Z,8.34
2019-02-22T04:23:28.265Z,8.29
2019-02-22T04:26:01.538Z,8.32
2019-02-22T04:28:34.847Z,8.32
2019-02-22T04:31:08.147Z,8.32
2019-02-22T04:33:41.467Z,8.35
2019-02-22T04:36:14.736Z,8.31
2019-02-22T04:38:48.044Z,8.30
2019-02-22T04:41:21.334Z,8.28
2019-02-22T04:43:54.620Z,8.26
2019-02-22T04:46:27.920Z,8.27
2019-02-22T04:49:01.193Z,8.26
2019-02-22T04:51:34.517Z,8.26
2019-02-22T04:54:07.804Z,8.25
2019-02-22T04:56:41.096Z,8.22
2019-02-22T04:59:14.378Z,8.21
2019-02-22T05:01:47.684Z,8.18
2019-02-22T05:04:20.965Z,8.17
2019-02-22T05:06:54.264Z,8.21
2019-02-22T05:09:27.552Z,8.21
2019-02-22T05:12:10.505Z,8.20
2019-02-22T05:14:35.878Z,8.20
2019-02-22T05:17:09.178Z,8.17
2019-02-22T05:19:42.951Z,8.25
2019-02-22T05:22:16.229Z,8.34
2019-02-22T05:24:49.508Z,8.36
2019-02-22T05:27:24.000Z,8.39
2019-02-22T05:29:57.267Z,8.36
2019-02-22T05:32:30.575Z,8.33
2019-02-22T05:35:03.990Z,8.42
2019-02-22T05:37:37.281Z,8.41
2019-02-22T05:40:10.638Z,8.41
2019-02-22T05:42:43.943Z,8.39
2019-02-22T05:45:17.249Z,8.39
2019-02-22T05:47:50.552Z,8.37
2019-02-22T05:50:23.850Z,8.32
2019-02-22T05:52:57.529Z,8.31
2019-02-22T05:55:30.823Z,8.36
2019-02-22T05:58:04.127Z,8.38
2019-02-22T06:00:37.398Z,8.40
2019-02-22T06:03:10.694Z,8.49
2019-02-22T06:05:44.001Z,8.50
2019-02-22T06:08:17.779Z,8.48
2019-02-22T06:10:51.067Z,8.53
2019-02-22T06:13:24.357Z,8.57
2019-02-22T06:15:57.696Z,8.55
2019-02-22T06:18:30.997Z,8.58
2019-02-22T06:21:04.266Z,8.66
2019-02-22T06:23:37.557Z,8.69
2019-02-22T06:26:10.852Z,8.64
2019-02-22T06:28:44.129Z,8.72
2019-02-22T06:31:17.416Z,8.81
2019-02-22T06:33:50.717Z,8.88
2019-02-22T06:36:24.004Z,8.90
2019-02-22T06:38:57.300Z,8.95
2019-02-22T06:41:30.575Z,8.97
2019-02-22T06:44:04.173Z,8.98
2019-02-22T06:46:37.451Z,8.96
2019-02-22T06:49:10.746Z,8.89
2019-02-22T06:51:44.037Z,8.85
2019-02-22T06:54:17.336Z,8.77
2019-02-22T06:56:50.637Z,8.68
2019-02-22T06:59:23.951Z,8.64
2019-02-22T07:01:57.794Z,8.59
2019-02-22T07:04:31.118Z,8.57
2019-02-22T07:07:04.474Z,8.57
2019-02-22T07:09:37.797Z,8.59
2019-02-22T07:12:12.740Z,8.67
2019-02-22T07:14:46.041Z,8.73
2019-02-22T07:17:19.337Z,8.84
2019-02-22T07:19:52.626Z,8.92
2019-02-22T07:22:25.926Z,8.92
2019-02-22T07:24:59.264Z,8.95
2019-02-22T07:27:32.554Z,8.95
2019-02-22T07:30:08.882Z,9.03
2019-02-22T07:32:42.353Z,9.11
2019-02-22T07:35:15.794Z,9.15
2019-02-22T07:37:49.071Z,9.09
2019-02-22T07:40:22.386Z,9.16
2019-02-22T07:42:55.674Z,9.29
2019-02-22T07:45:29.001Z,9.32
2019-02-22T07:48:02.291Z,9.37
2019-02-22T07:50:36.646Z,9.45
2019-02-22T07:53:09.926Z,9.53
2019-02-22T07:55:43.304Z,9.65
2019-02-22T07:58:16.578Z,9.79
2019-02-22T08:00:49.917Z,9.81
2019-02-22T08:03:23.279Z,9.81
2019-02-22T08:05:56.623Z,10.06
2019-02-22T08:08:29.884Z,10.13
2019-02-22T08:11:03.312Z,10.25
2019-02-22T08:13:36.619Z,10.35
2019-02-22T08:16:09.925Z,10.51
2019-02-22T08:18:43.503Z,10.56
2019-02-22T08:21:16.812Z,10.61
2019-02-22T08:23:50.164Z,10.81
2019-02-22T08:26:23.935Z,10.86
2019-02-22T08:28:57.242Z,10.76
2019-02-22T08:31:30.579Z,10.91
2019-02-22T08:34:03.941Z,10.96
2019-02-22T08:36:38.147Z,11.38
2019-02-22T08:39:12.535Z,11.45
2019-02-22T08:41:45.873Z,11.61
2019-02-22T08:44:19.195Z,11.73
2019-02-22T08:46:52.562Z,11.47
2019-02-22T08:49:25.871Z,11.51
2019-02-22T08:52:00.704Z,11.71
2019-02-22T08:54:34.031Z,11.86
2019-02-22T08:57:07.334Z,11.59
2019-02-22T08:59:40.668Z,11.50
2019-02-22T09:02:13.946Z,11.59
2019-02-22T09:04:47.258Z,11.74
2019-02-22T09:07:20.546Z,11.96
2019-02-22T09:09:53.865Z,11.76
2019-02-22T09:12:27.129Z,11.82
2019-02-22T09:15:00.493Z,12.22
2019-02-22T09:17:33.788Z,12.20
2019-02-22T09:20:09.723Z,12.17
2019-02-22T09:22:43.014Z,12.39
2019-02-22T09:25:16.332Z,12.44
2019-02-22T09:27:49.659Z,12.49
2019-02-22T09:30:22.937Z,12.45
2019-02-22T09:32:56.217Z,12.30
2019-02-22T09:35:29.533Z,12.45
2019-02-22T09:38:04.315Z,12.70
2019-02-22T09:40:37.614Z,12.80
2019-02-22T09:43:11.185Z,12.88
2019-02-22T09:45:44.486Z,12.78
2019-02-22T09:48:17.787Z,12.48
2019-02-22T09:50:51.113Z,12.38
2019-02-22T09:53:24.404Z,12.49
2019-02-22T09:55:57.690Z,12.56
2019-02-22T09:58:31.002Z,12.56
2019-02-22T10:01:04.389Z,13.23
2019-02-22T10:03:37.663Z,13.47
2019-02-22T10:06:10.965Z,13.58
2019-02-22T10:08:44.296Z,13.40
2019-02-22T10:11:18.782Z,13.20
2019-02-22T10:13:52.072Z,13.31
2019-02-22T10:16:27.501Z,13.31
2019-02-22T10:19:00.390Z,13.08
2019-02-22T10:21:33.792Z,13.08
2019-02-22T10:24:07.081Z,13.31
2019-02-22T10:26:40.660Z,13.31
2019-02-22T10:29:13.937Z,13.49
2019-02-22T10:31:47.272Z,13.72
2019-02-22T10:34:20.548Z,13.78
2019-02-22T10:36:53.851Z,13.35
2019-02-22T10:39:27.141Z,13.57
2019-02-22T10:42:00.542Z,13.25
2019-02-22T10:44:33.866Z,13.20
2019-02-22T10:47:07.182Z,13.12
2019-02-22T10:49:40.481Z,13.05
2019-02-22T10:52:13.791Z,13.02
2019-02-22T10:54:47.116Z,12.93
2019-02-22T10:57:20.379Z,13.07
2019-02-22T10:59:53.657Z,12.98
2019-02-22T11:02:26.961Z,12.98
2019-02-22T11:05:00.313Z,13.31
2019-02-22T11:07:33.702Z,13.63
2019-02-22T11:10:09.922Z,14.25
2019-02-22T11:12:43.292Z,14.25
2019-02-22T11:15:16.626Z,16.84
2019-02-22T11:17:49.927Z,18.77
2019-02-22T11:20:23.219Z,16.15
2019-02-22T11:22:56.568Z,16.08
2019-02-22T11:25:29.900Z,15.14
2019-02-22T11:28:03.187Z,14.38
2019-02-22T11:30:36.603Z,14.02
2019-02-22T11:33:10.986Z,13.81
2019-02-22T11:35:44.277Z,13.51
2019-02-22T11:38:17.547Z,13.25
2019-02-22T11:40:50.867Z,13.08
2019-02-22T11:43:24.161Z,13.19
2019-02-22T11:45:57.454Z,13.19
2019-02-22T11:48:30.741Z,13.25
2019-02-22T11:51:04.040Z,13.41
2019-02-22T11:53:37.387Z,13.16
2019-02-22T11:56:11.641Z,13.30
2019-02-22T11:58:44.899Z,13.34
2019-02-22T12:01:18.201Z,13.55
2019-02-22T12:03:51.476Z,13.50
2019-02-22T12:06:24.804Z,13.55
2019-02-22T12:08:58.080Z,13.64
2019-02-22T12:11:31.386Z,13.72
2019-02-22T12:14:04.740Z,13.94
2019-02-22T12:16:38.077Z,13.94
2019-02-22T12:19:11.371Z,13.89
2019-02-22T12:21:44.686Z,13.90
2019-02-22T12:24:17.961Z,13.86
2019-02-22T12:26:51.248Z,14.01
2019-02-22T12:29:24.516Z,13.94
2019-02-22T12:31:57.816Z,13.86
2019-02-22T12:34:32.728Z,13.72
2019-02-22T12:37:06.169Z,13.78
2019-02-22T12:39:39.516Z,14.03
2019-02-22T12:42:12.809Z,14.07
2019-02-22T12:44:46.084Z,15.25
2019-02-22T12:47:19.481Z,14.72
2019-02-22T12:49:52.857Z,13.93
2019-02-22T12:52:26.154Z,13.99
2019-02-22T12:54:59.429Z,13.88
2019-02-22T12:57:32.747Z,13.83
2019-02-22T13:00:12.436Z,13.56
2019-02-22T13:02:45.749Z,13.44
2019-02-22T13:05:21.838Z,13.44
2019-02-22T13:07:55.160Z,13.22
2019-02-22T13:10:28.460Z,13.39
2019-02-22T13:13:01.785Z,13.38
2019-02-22T13:15:35.075Z,13.22
2019-02-22T13:18:08.442Z,13.32
2019-02-22T13:20:41.698Z,13.36
2019-02-22T13:23:14.988Z,13.29
2019-02-22T13:25:49.307Z,13.16
2019-02-22T13:28:22.616Z,13.16
2019-02-22T13:30:55.896Z,13.02
2019-02-22T13:33:29.197Z,13.02
2019-02-22T13:36:02.504Z,13.15
2019-02-22T13:38:35.809Z,13.18
2019-02-22T13:41:09.114Z,13.28
2019-02-22T13:43:42.415Z,13.20
2019-02-22T13:46:15.712Z,13.35
2019-02-22T13:48:49.121Z,13.16
2019-02-22T13:51:22.478Z,13.16
2019-02-22T13:53:55.774Z,13.21
2019-02-22T13:56:30.078Z,13.29
2019-02-22T13:59:03.596Z,13.24
2019-02-22T14:01:36.955Z,13.17
2019-02-22T14:04:10.235Z,13.13
2019-02-22T14:06:43.528Z,13.18
2019-02-22T14:09:16.810Z,13.11
2019-02-22T14:11:50.137Z,13.12
2019-02-22T14:14:23.446Z,13.14
2019-02-22T14:16:56.827Z,13.10
2019-02-22T14:19:30.147Z,13.05
2019-02-22T14:22:04.132Z,13.12
2019-02-22T14:24:37.424Z,13.08
2019-02-22T14:27:10.797Z,13.07
2019-02-22T14:29:44.119Z,13.00
2019-02-22T14:32:17.453Z,12.95
2019-02-22T14:34:50.720Z,13.01
2019-02-22T14:37:24.028Z,12.96
2019-02-22T14:40:03.025Z,13.03
2019-02-22T14:42:32.451Z,13.01
2019-02-22T14:45:08.502Z,13.07
2019-02-22T14:47:41.797Z,12.85
2019-02-22T14:50:18.578Z,12.93
2019-02-22T14:52:51.882Z,12.95
2019-02-22T14:55:25.226Z,13.02
2019-02-22T14:57:58.517Z,12.93
2019-02-22T15:00:32.641Z,12.85
2019-02-22T15:03:05.934Z,12.88
2019-02-22T15:05:39.235Z,12.89
2019-02-22T15:08:12.547Z,12.85
2019-02-22T15:10:45.843Z,12.86
2019-02-22T15:13:19.201Z,12.73
2019-02-22T15:16:03.964Z,12.73
2019-02-22T15:18:37.608Z,12.75
2019-02-22T15:21:10.941Z,12.65
2019-02-22T15:23:44.228Z,12.52
2019-02-22T15:26:17.537Z,12.37
2019-02-22T15:28:50.920Z,12.30
2019-02-22T15:31:24.226Z,12.13
2019-02-22T15:33:57.581Z,12.07
2019-02-22T15:36:30.831Z,12.03
2019-02-22T15:39:05.146Z,11.94
2019-02-22T15:41:38.434Z,12.27
2019-02-22T15:44:12.764Z,13.85
2019-02-22T15:46:46.005Z,13.73
2019-02-22T15:49:19.327Z,12.75
2019-02-22T15:51:52.608Z,12.43
2019-02-22T15:54:25.910Z,12.34
2019-02-22T15:56:59.196Z,12.15
2019-02-22T15:59:32.525Z,12.00
2019-02-22T16:02:06.352Z,11.93
2019-02-22T16:04:45.161Z,11.85
2019-02-22T16:07:18.735Z,11.80
2019-02-22T16:09:52.130Z,11.73
2019-02-22T16:12:25.603Z,11.68
2019-02-22T16:14:59.941Z,11.59
2019-02-22T16:17:33.236Z,11.52
2019-02-22T16:20:08.182Z,11.43
2019-02-22T16:22:41.920Z,11.33
2019-02-22T16:25:19.683Z,11.23
2019-02-22T16:27:50.268Z,11.13
2019-02-22T16:30:26.744Z,11.02
2019-02-22T16:33:00.028Z,10.93
2019-02-22T16:35:33.912Z,10.82
2019-02-22T16:38:07.204Z,10.76
2019-02-22T16:40:40.580Z,10.66
2019-02-22T16:43:13.858Z,10.52
2019-02-22T16:45:47.152Z,10.42
2019-02-22T16:48:20.422Z,10.37
2019-02-22T16:50:53.711Z,10.22
2019-02-22T16:53:27.022Z,10.16
2019-02-22T16:56:00.399Z,9.96
2019-02-22T16:58:33.682Z,9.80
2019-02-22T17:01:07.056Z,9.77
2019-02-22T17:03:40.439Z,9.85
2019-02-22T17:06:13.791Z,9.77
2019-02-22T17:08:47.075Z,9.60
2019-02-22T17:11:21.430Z,9.59
2019-02-22T17:13:54.727Z,9.43
2019-02-22T17:16:28.021Z,9.32
2019-02-22T17:19:02.163Z,9.22
2019-02-22T17:21:35.458Z,9.26
2019-02-22T17:24:08.748Z,9.15
2019-02-22T17:26:42.066Z,9.04
2019-02-22T17:29:15.348Z,8.96
2019-02-22T17:31:48.654Z,8.63
2019-02-22T17:34:21.962Z,8.52
2019-02-22T17:36:55.260Z,8.67
2019-02-22T17:39:28.554Z,8.63
2019-02-22T17:42:01.883Z,8.39
2019-02-22T17:44:35.160Z,8.34
2019-02-22T17:47:10.005Z,8.24
2019-02-22T17:49:43.314Z,8.20
2019-02-22T17:52:19.023Z,8.32
2019-02-22T17:54:52.432Z,8.63
2019-02-22T17:57:25.712Z,8.62
2019-02-22T17:59:59.040Z,8.68
2019-02-22T18:02:33.560Z,8.62
2019-02-22T18:05:08.913Z,8.46
2019-02-22T18:07:42.192Z,8.36
2019-02-22T18:10:15.519Z,8.09
2019-02-22T18:12:52.256Z,8.05
2019-02-22T18:15:25.555Z,8.03
2019-02-22T18:17:58.839Z,7.99
2019-02-22T18:20:33.845Z,7.96
2019-02-22T18:23:07.142Z,7.87
2019-02-22T18:25:40.435Z,7.96
2019-02-22T18:28:13.823Z,7.96
2019-02-22T18:30:47.135Z,8.01
2019-02-22T18:33:20.483Z,8.00
2019-02-22T18:35:55.308Z,7.94
2019-02-22T18:38:28.610Z,7.76
2019-02-22T18:41:01.955Z,7.65
2019-02-22T18:43:35.356Z,7.79
2019-02-22T18:46:08.672Z,7.80
2019-02-22T18:48:41.962Z,7.59
2019-02-22T18:51:15.299Z,7.42
2019-02-22T18:53:48.603Z,7.21
2019-02-22T18:56:21.902Z,7.08
2019-02-22T18:58:55.223Z,7.04
2019-02-22T19:01:28.509Z,6.93
2019-02-22T19:04:01.800Z,6.90
2019-02-22T19:06:35.135Z,6.98
2019-02-22T19:09:08.418Z,6.97
2019-02-22T19:11:41.717Z,6.88
2019-02-22T19:14:15.004Z,6.85
2019-02-22T19:16:48.311Z,6.97
2019-02-22T19:19:21.586Z,7.40
2019-02-22T19:21:54.972Z,7.42
2019-02-22T19:24:28.258Z,7.40
2019-02-22T19:27:01.598Z,7.30
2019-02-22T19:29:34.900Z,7.26
2019-02-22T19:32:08.194Z,7.38
2019-02-22T19:34:41.473Z,7.48
2019-02-22T19:37:14.772Z,7.40
2019-02-22T19:39:48.063Z,7.32
2019-02-22T19:42:22.533Z,7.31
2019-02-22T19:44:55.897Z,7.45
2019-02-22T19:47:29.190Z,7.36
2019-02-22T19:50:02.841Z,7.42
2019-02-22T19:52:36.647Z,7.59
2019-02-22T19:55:15.156Z,7.56
2019-02-22T19:57:48.478Z,7.55
2019-02-22T20:00:21.826Z,7.60
2019-02-22T20:02:55.131Z,7.68
2019-02-22T20:05:28.426Z,7.58
2019-02-22T20:08:01.733Z,7.60
2019-02-22T20:10:35.111Z,7.54
2019-02-22T20:13:09.431Z,7.49
2019-02-22T20:15:42.733Z,7.40
2019-02-22T20:18:16.032Z,7.26
2019-02-22T20:20:49.297Z,7.08
2019-02-22T20:23:22.600Z,6.96
2019-02-22T20:25:55.868Z,6.78
2019-02-22T20:28:29.165Z,6.77
2019-02-22T20:31:02.447Z,6.75
2019-02-22T20:33:35.793Z,6.81
2019-02-22T20:36:09.077Z,6.90
2019-02-22T20:38:42.506Z,6.89
2019-02-22T20:41:15.758Z,6.75
2019-02-22T20:43:49.085Z,6.63
2019-02-22T20:46:22.340Z,6.51
2019-02-22T20:49:00.823Z,6.54
2019-02-22T20:51:31.845Z,6.46
2019-02-22T20:54:05.144Z,6.53
2019-02-22T20:56:38.325Z,6.42
2019-02-22T20:59:11.653Z,6.34
2019-02-22T21:01:44.951Z,6.42
2019-02-22T21:04:18.278Z,6.60
2019-02-22T21:06:51.542Z,6.68
2019-02-22T21:09:24.870Z,6.54
2019-02-22T21:11:58.186Z,6.42
2019-02-22T21:14:31.520Z,6.33
2019-02-22T21:17:05.648Z,6.22
2019-02-22T21:19:38.927Z,6.40
2019-02-22T21:22:12.220Z,6.55
2019-02-22T21:24:45.513Z,6.56
2019-02-22T21:27:18.893Z,6.88
2019-02-22T21:29:52.239Z,6.89
2019-02-22T21:32:25.533Z,6.91
2019-02-22T21:34:58.838Z,6.94
2019-02-22T21:37:32.134Z,6.92
2019-02-22T21:40:08.167Z,7.03
2019-02-22T21:42:41.596Z,7.06
2019-02-22T21:45:16.036Z,7.27
2019-02-22T21:47:54.671Z,7.38
2019-02-22T21:50:24.345Z,7.42
2019-02-22T21:52:57.697Z,7.37
2019-02-22T21:55:31.074Z,7.25
2019-02-22T21:58:04.406Z,7.37
2019-02-22T22:00:37.821Z,7.56
2019-02-22T22:03:11.113Z,7.56
2019-02-22T22:05:44.384Z,7.51
2019-02-22T22:08:17.685Z,7.46
2019-02-22T22:10:50.991Z,7.43
2019-02-22T22:13:24.306Z,7.40
2019-02-22T22:15:57.585Z,7.54
2019-02-22T22:18:38.412Z,7.53
2019-02-22T22:21:05.918Z,7.64
2019-02-22T22:23:39.234Z,7.73
2019-02-22T22:26:12.516Z,7.77
2019-02-22T22:28:45.828Z,7.86
2019-02-22T22:31:19.116Z,7.54
2019-02-22T22:33:52.434Z,7.27
2019-02-22T22:36:25.720Z,7.39
2019-02-22T22:38:59.026Z,7.19
2019-02-22T22:41:32.296Z,6.99
2019-02-22T22:44:06.708Z,7.01
2019-02-22T22:46:39.986Z,6.86
2019-02-22T22:49:13.278Z,7.04
2019-02-22T22:51:46.599Z,7.20
2019-02-22T22:54:19.928Z,7.11
2019-02-22T22:56:53.202Z,6.83
2019-02-22T22:59:26.499Z,6.89
2019-02-22T23:01:59.987Z,6.99
2019-02-22T23:04:33.273Z,7.12
2019-02-22T23:07:06.612Z,7.05
2019-02-22T23:09:39.957Z,6.91
2019-02-22T23:12:13.231Z,6.96
2019-02-22T23:14:46.530Z,7.12
2019-02-22T23:17:19.884Z,7.01
2019-02-22T23:19:53.327Z,6.82
2019-02-22T23:22:26.578Z,6.72
2019-02-22T23:24:59.872Z,6.43
2019-02-22T23:27:33.161Z,6.17
2019-02-22T23:30:08.000Z,6.45
2019-02-22T23:32:41.305Z,6.26
2019-02-22T23:35:14.641Z,6.06
2019-02-22T23:37:47.917Z,6.17
2019-02-22T23:40:21.231Z,6.18
2019-02-22T23:42:54.509Z,6.47
2019-02-22T23:45:27.829Z,6.50
2019-02-22T23:48:01.115Z,6.29
2019-02-22T23:50:34.423Z,6.16
2019-02-22T23:53:07.692Z,6.02
2019-02-22T23:55:41.023Z,5.90
2019-02-22T23:58:14.319Z,5.81
